Time;durP1;ratioP1;P1;durP2;ratioP2;P2;SDS_P1;SDS_P2;PMS_P1;PMS_P2;Temp;Humidity;BMP_temperature;BMP_pressure;BME280_temperature;BME280_humidity;BME280_pressure;Samples;Min_cycle;Max_cycle;Signal;HPM_P1;HPM_P2
2021/08/13 00:00:08;;;;;;;9.50;8.47;;;20.40;99.90;;;;;;4861319;29;20204;-76
2021/08/13 00:02:39;;;;;;;9.60;8.03;;;20.40;99.90;;;;;;4860613;29;20213;-75
2021/08/13 00:05:08;;;;;;;10.13;9.03;;;20.40;99.90;;;;;;4869899;29;20600;-75
2021/08/13 00:07:35;;;;;;;9.87;8.70;;;20.30;99.90;;;;;;4857984;29;20211;-75
2021/08/13 00:10:02;;;;;;;9.60;8.53;;;20.30;99.90;;;;;;4854216;29;20203;-75
2021/08/13 00:12:29;;;;;;;9.07;7.70;;;20.20;99.90;;;;;;4861207;29;20255;-75
2021/08/13 00:14:57;;;;;;;9.40;8.40;;;20.20;99.90;;;;;;4858787;29;20242;-76
2021/08/13 00:17:24;;;;;;;10.97;8.20;;;20.10;99.90;;;;;;4859679;29;20207;-75
2021/08/13 00:19:51;;;;;;;9.77;8.77;;;20.10;99.90;;;;;;4860223;29;20207;-76
2021/08/13 00:22:19;;;;;;;8.73;7.77;;;20.10;99.90;;;;;;4861157;29;20206;-76
2021/08/13 00:24:46;;;;;;;10.17;8.60;;;20.00;99.90;;;;;;4859215;29;20229;-75
2021/08/13 00:27:13;;;;;;;9.97;8.70;;;20.00;99.90;;;;;;4859400;29;20211;-76
2021/08/13 00:29:40;;;;;;;10.30;8.40;;;20.00;99.90;;;;;;4858876;29;20208;-75
2021/08/13 00:32:07;;;;;;;9.87;8.63;;;20.00;99.90;;;;;;4860078;29;20244;-75
2021/08/13 00:34:34;;;;;;;8.50;7.37;;;20.00;99.90;;;;;;4843895;29;20285;-75
2021/08/13 00:37:02;;;;;;;9.17;8.07;;;20.00;99.90;;;;;;4848842;29;20204;-76
2021/08/13 00:39:30;;;;;;;10.63;8.67;;;19.90;99.90;;;;;;4866665;29;20211;-75
2021/08/13 00:41:57;;;;;;;10.73;9.10;;;19.90;99.90;;;;;;4851848;29;20200;-76
2021/08/13 00:44:24;;;;;;;10.37;9.20;;;20.00;99.90;;;;;;4859686;29;20735;-75
2021/08/13 00:46:51;;;;;;;9.83;8.80;;;19.90;99.90;;;;;;4857645;29;20207;-76
2021/08/13 00:49:28;;;;;;;11.23;8.93;;;19.90;99.90;;;;;;4859260;29;20211;-75
2021/08/13 00:52:06;;;;;;;10.07;8.97;;;19.90;99.90;;;;;;4853904;29;20213;-76
2021/08/13 00:54:37;;;;;;;10.67;9.57;;;19.90;99.90;;;;;;4862626;29;20244;-76
2021/08/13 00:57:05;;;;;;;11.20;10.10;;;19.80;99.90;;;;;;4867905;29;20564;-75
2021/08/13 00:59:40;;;;;;;10.67;9.57;;;19.80;99.90;;;;;;4852725;29;20235;-75
2021/08/13 01:02:13;;;;;;;12.13;9.67;;;19.80;99.90;;;;;;4846118;29;20295;-76
2021/08/13 01:04:40;;;;;;;10.67;9.40;;;19.80;99.90;;;;;;4856752;29;20231;-75
2021/08/13 01:07:17;;;;;;;10.37;9.27;;;19.80;99.90;;;;;;4858133;29;20207;-75
2021/08/13 01:09:47;;;;;;;10.43;9.27;;;19.80;99.90;;;;;;4857801;29;20281;-76
2021/08/13 01:12:25;;;;;;;11.53;10.33;;;19.80;99.90;;;;;;4858909;29;20198;-76
2021/08/13 01:15:01;;;;;;;11.00;9.80;;;19.80;99.90;;;;;;4866753;29;20314;-75
2021/08/13 01:17:36;;;;;;;11.10;9.83;;;19.80;99.90;;;;;;4863300;29;20680;-76
2021/08/13 01:20:10;;;;;;;11.03;9.97;;;19.80;99.90;;;;;;4862009;29;20198;-75
2021/08/13 01:22:45;;;;;;;10.70;9.60;;;19.80;99.90;;;;;;4843361;29;20568;-76
2021/08/13 01:25:19;;;;;;;13.80;12.60;;;19.80;99.90;;;;;;4859244;29;20218;-75
2021/08/13 01:27:51;;;;;;;14.90;13.47;;;19.80;99.90;;;;;;4862632;29;20626;-75
2021/08/13 01:30:20;;;;;;;15.20;13.90;;;19.90;99.90;;;;;;4861738;29;20215;-76
2021/08/13 01:33:01;;;;;;;14.77;13.57;;;19.80;99.90;;;;;;4851127;29;20265;-75
2021/08/13 01:35:32;;;;;;;13.90;12.63;;;19.80;99.90;;;;;;4854940;29;20249;-76
2021/08/13 01:38:03;;;;;;;14.27;13.07;;;19.80;99.90;;;;;;4862720;29;20331;-76
2021/08/13 01:40:31;;;;;;;14.00;12.90;;;19.80;99.90;;;;;;4861142;29;20202;-76
2021/08/13 01:42:59;;;;;;;13.90;12.73;;;19.80;99.90;;;;;;4864607;29;20199;-75
2021/08/13 01:45:30;;;;;;;13.60;12.30;;;19.80;99.90;;;;;;4858425;29;20649;-75
2021/08/13 01:48:01;;;;;;;13.73;12.60;;;19.70;99.90;;;;;;4842751;29;20259;-75
2021/08/13 01:50:32;;;;;;;13.67;12.53;;;19.70;99.90;;;;;;4848223;29;20561;-75
2021/08/13 01:53:01;;;;;;;14.30;13.10;;;19.70;99.90;;;;;;4869188;29;20274;-75
2021/08/13 01:55:29;;;;;;;10.93;9.03;;;19.60;99.90;;;;;;4880108;23;20333;-79
2021/08/13 01:57:56;;;;;;;10.17;9.17;;;19.60;99.90;;;;;;4865506;29;20201;-80
2021/08/13 02:00:25;;;;;;;10.47;9.30;;;19.50;99.90;;;;;;4858572;29;20240;-80
2021/08/13 02:02:57;;;;;;;9.70;8.67;;;19.50;99.90;;;;;;4854021;29;20294;-80
2021/08/13 02:05:29;;;;;;;13.67;12.37;;;19.40;99.90;;;;;;4858335;29;20309;-80
2021/08/13 02:08:00;;;;;;;11.07;9.80;;;19.40;99.90;;;;;;4850527;29;20560;-80
2021/08/13 02:10:32;;;;;;;9.97;8.97;;;19.50;99.90;;;;;;4850810;29;20624;-80
2021/08/13 02:12:58;;;;;;;10.90;9.37;;;19.40;99.90;;;;;;4862613;29;20219;-80
2021/08/13 02:15:25;;;;;;;10.70;9.60;;;19.40;99.90;;;;;;4858292;29;20304;-79
2021/08/13 02:17:59;;;;;;;10.33;9.30;;;19.40;99.90;;;;;;4855461;29;20218;-79
2021/08/13 02:20:30;;;;;;;11.63;10.43;;;19.40;99.90;;;;;;4855020;29;20209;-80
2021/08/13 02:22:58;;;;;;;11.00;9.90;;;19.50;99.90;;;;;;4858438;29;20276;-80
2021/08/13 02:25:26;;;;;;;11.57;10.37;;;19.50;99.90;;;;;;4858161;29;20229;-80
2021/08/13 02:27:55;;;;;;;15.83;14.53;;;19.50;99.90;;;;;;4854823;29;20293;-80
2021/08/13 02:30:22;;;;;;;16.10;14.80;;;19.40;99.90;;;;;;4855502;29;20215;-80
2021/08/13 02:32:50;;;;;;;14.07;12.97;;;19.40;99.90;;;;;;4857903;29;20579;-80
2021/08/13 02:35:20;;;;;;;14.87;13.50;;;19.40;99.90;;;;;;4855691;29;20286;-80
2021/08/13 02:37:53;;;;;;;15.00;13.70;;;19.40;99.90;;;;;;4856418;29;20215;-80
2021/08/13 02:40:27;;;;;;;16.33;14.93;;;19.40;99.90;;;;;;4853747;29;20238;-78
2021/08/13 02:43:01;;;;;;;14.87;13.57;;;19.40;99.90;;;;;;4855641;29;20212;-79
2021/08/13 02:46:34;;;;;;;15.13;13.83;;;19.40;99.90;;;;;;4953280;23;20245;-79
2021/08/13 02:49:49;;;;;;;14.00;12.70;;;19.40;99.90;;;;;;4878802;29;20210;-79
2021/08/13 02:52:51;;;;;;;14.03;12.83;;;19.40;99.90;;;;;;4870034;29;20266;-79
2021/08/13 02:55:24;;;;;;;14.17;12.97;;;19.40;99.90;;;;;;4829540;29;20250;-78
2021/08/13 02:57:58;;;;;;;14.60;13.40;;;19.30;99.90;;;;;;4820108;29;20889;-79
2021/08/13 03:00:26;;;;;;;14.97;13.47;;;19.30;99.90;;;;;;4924124;23;20235;-81
2021/08/13 03:02:55;;;;;;;14.10;12.87;;;19.30;99.90;;;;;;4900216;29;20211;-83
2021/08/13 03:05:25;;;;;;;14.10;12.90;;;19.30;99.90;;;;;;4902423;29;20216;-81
2021/08/13 03:07:55;;;;;;;14.40;13.20;;;19.30;99.90;;;;;;4901105;29;20224;-82
2021/08/13 03:10:22;;;;;;;13.27;12.07;;;19.30;99.90;;;;;;4899411;29;20234;-81
2021/08/13 03:12:50;;;;;;;14.27;13.17;;;19.30;99.90;;;;;;4899897;29;20200;-79
2021/08/13 03:15:18;;;;;;;13.73;12.63;;;19.20;99.90;;;;;;4900604;29;20205;-83
2021/08/13 03:17:45;;;;;;;14.73;13.43;;;19.20;99.90;;;;;;4892182;29;20680;-76
2021/08/13 03:20:12;;;;;;;13.67;12.57;;;19.20;99.90;;;;;;4886825;29;20241;-76
2021/08/13 03:22:55;;;;;;;14.30;13.10;;;19.20;99.90;;;;;;4890740;29;20700;-76
2021/08/13 03:25:23;;;;;;;15.00;13.73;;;19.20;99.90;;;;;;4898071;29;20204;-76
2021/08/13 03:27:51;;;;;;;14.57;13.37;;;19.20;99.90;;;;;;4896759;29;20200;-76
2021/08/13 03:30:18;;;;;;;15.57;14.17;;;19.20;99.90;;;;;;4893598;29;20221;-77
2021/08/13 03:32:47;;;;;;;14.60;13.23;;;19.20;99.90;;;;;;4896251;29;20256;-76
2021/08/13 03:35:16;;;;;;;14.87;13.57;;;19.20;99.90;;;;;;4887755;29;20671;-76
2021/08/13 03:37:43;;;;;;;14.57;13.17;;;19.20;99.90;;;;;;4895074;29;20670;-76
2021/08/13 03:40:13;;;;;;;14.03;12.83;;;19.20;99.90;;;;;;4891492;29;20225;-76
2021/08/13 03:42:43;;;;;;;16.03;14.43;;;19.10;99.90;;;;;;4894504;29;20232;-76
2021/08/13 03:45:10;;;;;;;15.37;13.97;;;19.10;99.90;;;;;;4895674;29;20207;-76
2021/08/13 03:47:37;;;;;;;15.57;14.27;;;19.00;99.90;;;;;;4897658;29;20204;-76
2021/08/13 03:50:06;;;;;;;15.10;13.70;;;19.00;99.90;;;;;;4894430;29;20248;-76
2021/08/13 03:52:33;;;;;;;15.17;13.87;;;19.00;99.90;;;;;;4896272;29;20208;-77
2021/08/13 03:55:00;;;;;;;15.40;14.10;;;19.00;99.90;;;;;;4895581;29;20340;-76
2021/08/13 03:57:34;;;;;;;17.00;15.50;;;19.00;99.90;;;;;;4897380;29;20283;-76
2021/08/13 04:00:01;;;;;;;17.43;15.73;;;19.00;99.90;;;;;;4886327;29;20239;-76
2021/08/13 04:02:33;;;;;;;16.23;14.93;;;19.00;99.90;;;;;;4888054;29;20205;-76
2021/08/13 04:05:00;;;;;;;15.87;14.47;;;19.00;99.90;;;;;;4897359;29;20208;-76
2021/08/13 04:07:27;;;;;;;16.20;14.63;;;19.10;99.90;;;;;;4895753;29;20221;-76
2021/08/13 04:09:54;;;;;;;17.07;15.47;;;19.10;99.90;;;;;;4896957;29;20311;-76
2021/08/13 04:12:21;;;;;;;16.30;14.90;;;19.10;99.90;;;;;;4896933;29;20205;-76
2021/08/13 04:15:08;;;;;;;15.83;14.53;;;19.10;99.90;;;;;;4890610;29;20606;-76
2021/08/13 04:17:35;;;;;;;15.80;14.40;;;19.20;99.90;;;;;;4896660;29;20276;-76
2021/08/13 04:20:02;;;;;;;16.73;15.20;;;19.20;99.90;;;;;;4896994;29;20216;-76
2021/08/13 04:22:32;;;;;;;16.30;15.00;;;19.20;99.90;;;;;;4894006;29;20207;-76
2021/08/13 04:25:00;;;;;;;16.47;15.17;;;19.20;99.90;;;;;;4903532;29;20200;-76
2021/08/13 04:27:27;;;;;;;15.63;14.33;;;19.30;99.90;;;;;;4897073;29;20295;-76
2021/08/13 04:29:54;;;;;;;15.17;13.97;;;19.30;99.90;;;;;;4896797;29;20213;-76
2021/08/13 04:32:22;;;;;;;16.20;14.93;;;19.30;99.90;;;;;;4895993;29;20331;-76
2021/08/13 04:34:49;;;;;;;15.57;14.33;;;19.30;99.90;;;;;;4896666;29;20667;-76
2021/08/13 04:37:18;;;;;;;16.67;15.03;;;19.30;99.90;;;;;;4894274;29;20213;-76
2021/08/13 04:39:45;;;;;;;16.50;15.03;;;19.30;99.90;;;;;;4894823;29;20249;-76
2021/08/13 04:42:12;;;;;;;15.70;14.50;;;19.30;99.90;;;;;;4896405;29;20573;-76
2021/08/13 04:44:41;;;;;;;16.50;15.10;;;19.20;99.90;;;;;;4896557;29;20204;-76
2021/08/13 04:47:09;;;;;;;15.90;14.50;;;19.10;99.90;;;;;;4893171;29;20225;-76
2021/08/13 04:49:38;;;;;;;16.70;15.30;;;19.10;99.90;;;;;;4895826;29;20217;-76
2021/08/13 04:52:06;;;;;;;17.43;16.03;;;19.10;99.90;;;;;;4891346;29;20719;-76
2021/08/13 04:54:33;;;;;;;16.10;14.80;;;19.10;99.90;;;;;;4893195;29;20231;-76
2021/08/13 04:57:00;;;;;;;17.10;15.60;;;19.20;99.90;;;;;;4896326;29;20197;-75
2021/08/13 04:59:27;;;;;;;15.57;14.47;;;19.20;99.90;;;;;;4896058;29;20304;-76
2021/08/13 05:02:02;;;;;;;17.63;15.93;;;19.20;99.90;;;;;;4889281;29;20681;-76
2021/08/13 05:04:29;;;;;;;16.50;15.20;;;19.30;99.90;;;;;;4894611;29;20205;-76
2021/08/13 05:06:59;;;;;;;17.40;16.00;;;19.30;99.90;;;;;;4888488;29;20577;-76
2021/08/13 05:09:27;;;;;;;15.67;14.47;;;19.40;99.90;;;;;;4896288;29;20212;-76
2021/08/13 05:11:54;;;;;;;16.37;14.97;;;19.30;99.90;;;;;;4895956;29;20208;-76
2021/08/13 05:14:21;;;;;;;15.87;14.47;;;19.40;99.90;;;;;;4896204;29;20289;-76
2021/08/13 05:16:49;;;;;;;16.40;15.00;;;19.40;99.90;;;;;;4888179;29;20289;-76
2021/08/13 05:19:16;;;;;;;16.13;14.83;;;19.40;99.90;;;;;;4891537;29;20788;-76
2021/08/13 05:21:43;;;;;;;15.47;14.27;;;19.50;99.90;;;;;;4894208;29;20204;-76
2021/08/13 05:24:16;;;;;;;16.30;14.70;;;19.60;99.90;;;;;;4894850;29;20724;-75
2021/08/13 05:26:43;;;;;;;15.27;14.03;;;19.70;99.90;;;;;;4895722;29;20209;-76
2021/08/13 05:29:10;;;;;;;16.10;14.80;;;19.80;99.90;;;;;;4893285;29;20264;-76
2021/08/13 05:31:38;;;;;;;15.90;14.60;;;20.00;99.90;;;;;;4895010;29;20584;-76
2021/08/13 05:34:05;;;;;;;15.70;14.37;;;20.20;99.90;;;;;;4895698;29;20215;-76
2021/08/13 05:36:33;;;;;;;16.13;14.77;;;20.40;99.90;;;;;;4892395;29;20622;-76
2021/08/13 05:38:59;;;;;;;15.67;14.33;;;20.60;99.90;;;;;;4893239;29;20709;-76
2021/08/13 05:41:29;;;;;;;14.50;13.40;;;20.80;99.90;;;;;;4895775;29;20206;-76
2021/08/13 05:43:57;;;;;;;15.40;14.20;;;20.90;99.90;;;;;;4895389;29;20202;-76
2021/08/13 05:46:24;;;;;;;15.90;14.70;;;21.00;99.90;;;;;;4895619;29;20218;-76
2021/08/13 05:48:51;;;;;;;16.13;14.77;;;21.20;99.90;;;;;;4892373;29;20227;-76
2021/08/13 05:51:19;;;;;;;13.70;12.23;;;21.50;99.90;;;;;;4894859;29;20211;-76
2021/08/13 05:53:45;;;;;;;15.53;14.33;;;21.70;99.90;;;;;;4895203;29;20222;-76
2021/08/13 05:56:13;;;;;;;11.87;10.87;;;21.80;99.90;;;;;;4892163;29;20204;-76
2021/08/13 05:58:41;;;;;;;12.57;11.37;;;21.90;99.90;;;;;;4893198;29;20219;-76
2021/08/13 06:01:09;;;;;;;12.37;11.10;;;22.00;99.90;;;;;;4894237;29;20204;-76
2021/08/13 06:03:36;;;;;;;11.17;10.17;;;21.80;99.90;;;;;;4895043;29;20700;-75
2021/08/13 06:06:03;;;;;;;11.70;10.20;;;21.90;99.90;;;;;;4895706;29;20224;-76
2021/08/13 06:08:30;;;;;;;10.77;9.70;;;21.90;99.90;;;;;;4887771;29;20274;-76
2021/08/13 06:10:57;;;;;;;11.33;10.23;;;21.90;99.90;;;;;;4892383;29;20618;-76
2021/08/13 06:13:25;;;;;;;14.43;13.27;;;22.00;99.90;;;;;;4891173;29;20204;-76
2021/08/13 06:15:55;;;;;;;11.17;10.17;;;22.10;99.90;;;;;;4887468;29;20231;-76
2021/08/13 06:18:22;;;;;;;14.20;13.07;;;22.30;99.90;;;;;;4895083;29;20745;-75
2021/08/13 06:20:49;;;;;;;14.53;13.40;;;22.40;99.90;;;;;;4892157;29;20236;-76
2021/08/13 06:23:20;;;;;;;14.20;13.10;;;22.50;99.90;;;;;;4890639;29;20311;-75
2021/08/13 06:25:49;;;;;;;13.97;12.87;;;22.60;99.90;;;;;;4895164;29;20211;-76
2021/08/13 06:28:16;;;;;;;14.53;13.13;;;22.80;99.90;;;;;;4894775;29;20212;-76
2021/08/13 06:30:45;;;;;;;14.67;13.47;;;22.90;99.90;;;;;;4894943;29;20228;-76
2021/08/13 06:33:14;;;;;;;14.53;13.40;;;23.10;99.90;;;;;;4896204;29;20252;-77
2021/08/13 06:35:41;;;;;;;14.40;13.30;;;23.20;99.90;;;;;;4894751;29;20721;-76
2021/08/13 06:38:09;;;;;;;15.60;14.17;;;23.30;99.90;;;;;;4896799;29;20299;-76
2021/08/13 06:40:40;;;;;;;15.90;14.57;;;23.30;99.90;;;;;;4898811;29;20667;-76
2021/08/13 06:43:07;;;;;;;15.57;14.37;;;23.40;99.90;;;;;;4900071;29;20201;-76
2021/08/13 06:45:35;;;;;;;16.20;14.90;;;23.50;99.90;;;;;;4896618;29;20851;-75
2021/08/13 06:48:10;;;;;;;15.40;14.20;;;23.60;99.90;;;;;;4890804;29;20196;-76
2021/08/13 06:50:38;;;;;;;10.80;8.63;;;23.70;99.90;;;;;;4898087;29;20288;-76
2021/08/13 06:53:05;;;;;;;13.13;12.03;;;23.90;99.90;;;;;;4886795;29;20209;-76
2021/08/13 06:55:32;;;;;;;14.73;13.43;;;24.00;99.90;;;;;;4887795;29;20220;-76
2021/08/13 06:58:02;;;;;;;9.60;8.60;;;24.10;99.90;;;;;;4898208;29;20200;-76
2021/08/13 07:00:32;;;;;;;12.63;11.53;;;24.30;99.90;;;;;;4896822;29;20235;-76
2021/08/13 07:02:59;;;;;;;15.37;14.03;;;24.50;99.90;;;;;;4891124;29;20205;-76
2021/08/13 07:05:26;;;;;;;13.67;12.37;;;24.70;99.90;;;;;;4898751;29;20209;-76
2021/08/13 07:07:54;;;;;;;12.20;10.53;;;24.80;99.90;;;;;;4896375;29;20202;-76
2021/08/13 07:10:22;;;;;;;12.70;11.60;;;24.90;99.90;;;;;;4897140;29;20228;-76
2021/08/13 07:12:49;;;;;;;11.50;10.40;;;25.10;99.90;;;;;;4898180;29;20677;-76
2021/08/13 07:15:18;;;;;;;10.27;9.37;;;25.10;99.90;;;;;;4895189;29;20223;-76
2021/08/13 07:17:47;;;;;;;13.20;12.10;;;25.10;99.90;;;;;;4896299;29;20295;-76
2021/08/13 07:20:15;;;;;;;13.17;12.07;;;25.40;99.90;;;;;;4898273;29;20228;-76
2021/08/13 07:22:42;;;;;;;13.23;12.07;;;25.70;99.90;;;;;;4897819;29;20596;-76
2021/08/13 07:25:11;;;;;;;9.93;7.73;;;25.90;99.90;;;;;;4897995;29;20733;-77
2021/08/13 07:27:38;;;;;;;11.60;10.50;;;26.00;99.90;;;;;;4895137;29;20224;-76
2021/08/13 07:30:07;;;;;;;10.73;9.80;;;25.90;99.90;;;;;;4896648;29;20224;-76
2021/08/13 07:32:34;;;;;;;9.53;8.53;;;26.10;99.90;;;;;;4897421;29;20671;-76
2021/08/13 07:35:02;;;;;;;9.17;7.83;;;26.30;99.90;;;;;;4898187;29;20586;-76
2021/08/13 07:37:36;;;;;;;10.23;9.27;;;26.70;99.90;;;;;;4895271;29;20196;-76
2021/08/13 07:40:04;;;;;;;10.67;9.57;;;27.20;99.90;;;;;;4897474;29;20600;-77
2021/08/13 07:42:34;;;;;;;10.77;9.77;;;27.50;99.90;;;;;;4898124;29;20227;-76
2021/08/13 07:45:01;;;;;;;13.50;12.13;;;27.70;99.90;;;;;;4893953;29;20257;-76
2021/08/13 07:47:28;;;;;;;12.60;11.57;;;27.90;99.90;;;;;;4893566;29;20273;-76
2021/08/13 07:49:55;;;;;;;11.03;9.93;;;28.20;99.90;;;;;;4897880;29;20236;-76
2021/08/13 07:52:22;;;;;;;9.20;8.23;;;28.30;99.90;;;;;;4897312;29;20236;-77
2021/08/13 07:54:49;;;;;;;13.00;11.70;;;28.60;99.90;;;;;;4897975;29;20272;-76
2021/08/13 07:57:18;;;;;;;11.37;10.37;;;28.80;99.90;;;;;;4897730;29;20670;-76
2021/08/13 07:59:49;;;;;;;11.47;10.30;;;29.10;99.90;;;;;;4894486;29;20320;-76
2021/08/13 08:02:19;;;;;;;11.30;10.40;;;29.40;99.90;;;;;;4895167;29;20291;-77
2021/08/13 08:04:46;;;;;;;11.67;10.47;;;29.70;99.90;;;;;;4897732;29;20283;-76
2021/08/13 08:07:13;;;;;;;7.87;7.07;;;29.80;99.90;;;;;;4898800;29;20808;-76
2021/08/13 08:09:40;;;;;;;10.87;9.97;;;30.20;99.90;;;;;;4897955;29;20222;-76
2021/08/13 08:12:07;;;;;;;11.50;10.53;;;30.30;99.90;;;;;;4898649;29;20296;-76
2021/08/13 08:14:34;;;;;;;12.70;11.00;;;30.40;99.90;;;;;;4896086;29;20802;-76
2021/08/13 08:17:03;;;;;;;11.63;10.53;;;30.40;99.90;;;;;;4896558;29;20213;-76
2021/08/13 08:19:30;;;;;;;10.47;9.67;;;30.60;99.90;;;;;;4898498;29;20718;-77
2021/08/13 08:21:57;;;;;;;11.90;10.80;;;30.70;99.90;;;;;;4894555;29;20239;-77
2021/08/13 08:24:23;;;;;;;11.80;10.83;;;30.80;99.90;;;;;;4892145;29;20292;-76
2021/08/13 08:26:51;;;;;;;11.63;10.67;;;31.00;99.90;;;;;;4897533;29;20216;-76
2021/08/13 08:29:17;;;;;;;11.23;10.33;;;30.90;99.90;;;;;;4898039;29;20706;-77
2021/08/13 08:31:44;;;;;;;11.53;10.43;;;31.10;99.90;;;;;;4898030;29;20296;-76
2021/08/13 08:34:12;;;;;;;10.93;9.87;;;31.40;99.90;;;;;;4896550;29;20291;-76
2021/08/13 08:36:39;;;;;;;10.83;9.93;;;31.60;99.90;;;;;;4896646;29;20299;-77
2021/08/13 08:39:06;;;;;;;11.50;10.40;;;31.60;99.90;;;;;;4897994;29;20315;-76
2021/08/13 08:41:33;;;;;;;10.67;9.70;;;31.90;99.90;;;;;;4894419;29;20295;-77
2021/08/13 08:43:59;;;;;;;10.70;9.60;;;32.00;99.90;;;;;;4895645;29;20739;-76
2021/08/13 08:46:27;;;;;;;10.33;9.33;;;32.40;99.90;;;;;;4898321;29;20309;-76
2021/08/13 08:48:55;;;;;;;10.27;9.37;;;32.40;99.90;;;;;;4896635;29;20701;-77
2021/08/13 08:51:25;;;;;;;10.25;9.25;;;32.50;99.90;;;;;;4897979;29;20300;-76
2021/08/13 08:53:55;;;;;;;10.15;9.23;;;32.10;99.90;;;;;;4888199;29;20307;-76
2021/08/13 08:56:23;;;;;;;10.23;9.20;;;31.60;99.90;;;;;;4893987;29;20315;-76
2021/08/13 09:01:29;;;;;;;10.27;9.37;;;31.30;99.90;;;;;;4863696;29;20285;-84
2021/08/13 09:03:55;;;;;;;10.27;9.47;;;31.20;99.90;;;;;;4869050;29;20309;-85
2021/08/13 09:06:24;;;;;;;10.90;9.90;;;31.00;99.90;;;;;;4863458;29;20292;-83
2021/08/13 09:08:51;;;;;;;11.33;9.90;;;30.80;99.90;;;;;;4860636;29;20256;-83
2021/08/13 09:11:20;;;;;;;9.63;8.87;;;30.60;99.90;;;;;;4854796;29;20317;-81
2021/08/13 09:14:00;;;;;;;10.27;9.43;;;30.60;99.90;;;;;;4857233;29;20206;-81
2021/08/13 09:16:27;;;;;;;10.33;9.43;;;30.40;99.90;;;;;;4849915;29;20320;-81
2021/08/13 09:18:59;;;;;;;10.00;9.20;;;30.30;99.90;;;;;;4857074;29;20214;-81
2021/08/13 09:21:27;;;;;;;9.70;8.90;;;30.40;99.90;;;;;;4856534;29;20217;-82
2021/08/13 09:23:59;;;;;;;10.10;9.20;;;30.90;99.90;;;;;;4859151;29;20279;-81
2021/08/13 09:26:26;;;;;;;10.30;9.27;;;31.10;99.90;;;;;;4852825;29;20206;-81
2021/08/13 09:29:09;;;;;;;9.87;8.97;;;31.40;99.90;;;;;;4850836;29;20260;-81
2021/08/13 09:31:56;;;;;;;9.70;8.80;;;31.80;99.90;;;;;;4857540;29;20233;-81
2021/08/13 09:34:31;;;;;;;10.43;8.63;;;31.90;99.90;;;;;;4858895;29;20258;-81
2021/08/13 09:36:59;;;;;;;9.73;8.93;;;31.60;99.90;;;;;;4851906;29;20503;-81
2021/08/13 09:39:28;;;;;;;9.47;8.67;;;31.30;99.90;;;;;;4859222;29;20658;-81
2021/08/13 09:41:57;;;;;;;9.70;8.70;;;31.20;99.90;;;;;;4852601;29;20735;-81
2021/08/13 09:44:25;;;;;;;9.30;8.50;;;31.50;99.90;;;;;;4859155;29;20206;-81
2021/08/13 09:46:57;;;;;;;9.57;8.77;;;31.80;99.90;;;;;;4871155;29;20248;-80
2021/08/13 09:49:24;;;;;;;9.17;8.37;;;32.20;99.90;;;;;;4856156;29;20242;-81
2021/08/13 09:51:51;;;;;;;9.60;8.80;;;32.70;99.90;;;;;;4873522;29;20237;-81
2021/08/13 09:54:19;;;;;;;9.93;9.03;;;33.10;99.90;;;;;;4867487;29;20205;-81
2021/08/13 09:56:46;;;;;;;10.37;9.47;;;33.20;99.90;;;;;;4865675;29;20230;-81
2021/08/13 09:59:15;;;;;;;10.23;9.20;;;33.30;99.90;;;;;;4860254;29;20743;-81
2021/08/13 10:01:44;;;;;;;9.70;8.90;;;33.50;99.90;;;;;;4858332;29;20205;-81
2021/08/13 10:04:11;;;;;;;9.60;8.70;;;33.60;99.90;;;;;;4855632;29;20637;-81
2021/08/13 10:06:39;;;;;;;10.13;9.10;;;33.80;99.90;;;;;;4872817;29;20223;-83
2021/08/13 10:09:20;;;;;;;9.05;8.25;;;33.60;99.90;;;;;;4874058;29;20210;-81
2021/08/13 10:11:58;;;;;;;10.63;9.50;;;33.50;99.90;;;;;;4858610;29;20680;-81
2021/08/13 10:14:32;;;;;;;10.43;9.33;;;33.40;99.90;;;;;;4859952;29;20248;-81
2021/08/13 10:17:11;;;;;;;10.50;9.37;;;33.30;99.90;;;;;;4869944;29;20246;-82
2021/08/13 10:19:40;;;;;;;10.15;8.93;;;33.10;99.90;;;;;;4867052;29;20225;-82
2021/08/13 10:22:08;;;;;;;9.80;8.90;;;33.00;99.90;;;;;;4866808;29;20289;-81
2021/08/13 10:24:36;;;;;;;9.80;8.90;;;33.10;99.90;;;;;;4869042;29;20206;-81
2021/08/13 10:27:06;;;;;;;9.97;8.97;;;33.10;99.90;;;;;;4874175;29;20671;-81
2021/08/13 10:29:36;;;;;;;9.43;8.63;;;33.30;99.90;;;;;;4859823;29;20659;-81
2021/08/13 10:32:05;;;;;;;9.70;8.70;;;33.50;99.90;;;;;;4872376;29;20207;-82
2021/08/13 10:34:32;;;;;;;10.30;9.10;;;33.50;99.90;;;;;;4864493;29;20240;-81
2021/08/13 10:36:59;;;;;;;9.40;8.50;;;33.20;99.90;;;;;;4866605;29;20190;-82
2021/08/13 10:39:32;;;;;;;9.60;8.75;;;33.10;99.90;;;;;;4848482;29;20219;-81
2021/08/13 10:42:03;;;;;;;9.38;8.57;;;33.10;99.90;;;;;;4852273;29;20704;-84
2021/08/13 10:44:34;;;;;;;9.67;8.57;;;33.10;99.90;;;;;;4854005;29;20208;-84
2021/08/13 10:47:10;;;;;;;9.77;8.82;;;33.10;99.90;;;;;;4859820;29;20223;-84
2021/08/13 10:49:40;;;;;;;9.97;8.53;;;33.10;99.90;;;;;;4860660;29;20357;-81
2021/08/13 10:52:09;;;;;;;10.00;9.10;;;33.00;99.90;;;;;;4861828;29;20202;-84
2021/08/13 10:54:43;;;;;;;9.83;8.67;;;33.10;99.90;;;;;;4878968;29;20577;-82
2021/08/13 10:57:13;;;;;;;11.47;10.40;;;33.10;99.90;;;;;;4854794;29;20203;-82
2021/08/13 10:59:57;;;;;;;10.00;9.00;;;32.90;99.90;;;;;;4861277;29;20735;-81
2021/08/13 11:02:25;;;;;;;10.70;9.87;;;32.90;99.90;;;;;;4867566;29;20206;-81
2021/08/13 11:04:58;;;;;;;12.27;11.23;;;32.90;99.90;;;;;;4855180;29;20266;-81
2021/08/13 11:07:56;;;;;;;12.17;11.03;;;32.80;99.90;;;;;;4873334;29;20226;-81
2021/08/13 11:10:58;;;;;;;12.37;11.20;;;32.50;99.90;;;;;;4858834;29;20230;-81
2021/08/13 11:13:27;;;;;;;10.10;9.20;;;32.40;99.90;;;;;;4866935;29;20231;-81
2021/08/13 11:16:00;;;;;;;12.07;8.93;;;32.10;99.90;;;;;;4871552;29;20230;-81
2021/08/13 11:18:38;;;;;;;11.83;10.40;;;31.90;99.90;;;;;;4874375;29;20210;-81
2021/08/13 11:21:30;;;;;;;10.30;9.30;;;31.90;99.90;;;;;;4868889;29;20222;-81
2021/08/13 11:24:00;;;;;;;11.03;9.93;;;32.10;99.90;;;;;;4854430;29;20245;-82
2021/08/13 11:27:12;;;;;;;10.83;9.73;;;32.00;99.90;;;;;;4869550;29;20209;-82
2021/08/13 11:29:45;;;;;;;9.60;8.70;;;32.10;99.90;;;;;;4867878;29;20602;-81
2021/08/13 11:32:32;;;;;;;10.70;9.80;;;32.10;99.90;;;;;;4870124;29;20247;-81
2021/08/13 11:35:03;;;;;;;10.47;9.57;;;32.10;99.90;;;;;;4861902;29;20200;-81
2021/08/13 11:37:46;;;;;;;12.10;11.10;;;32.10;99.90;;;;;;4860972;29;20266;-81
2021/08/13 11:40:45;;;;;;;11.93;11.03;;;32.20;99.90;;;;;;4864749;29;20799;-81
2021/08/13 11:43:13;;;;;;;12.50;11.37;;;32.10;99.90;;;;;;4871507;29;20210;-81
2021/08/13 11:45:44;;;;;;;12.63;11.37;;;32.20;99.90;;;;;;4861464;29;20222;-81
2021/08/13 11:48:20;;;;;;;11.87;10.90;;;32.20;99.90;;;;;;4870069;29;20756;-82
2021/08/13 11:50:47;;;;;;;11.93;10.93;;;32.20;99.90;;;;;;4868837;29;20230;-82
2021/08/13 11:53:13;;;;;;;12.13;11.13;;;32.30;99.90;;;;;;4868640;29;20220;-82
2021/08/13 11:55:44;;;;;;;12.57;11.47;;;32.30;99.90;;;;;;4852609;29;20198;-82
2021/08/13 11:58:23;;;;;;;10.30;9.43;;;32.40;99.90;;;;;;4860652;29;20204;-82
2021/08/13 12:01:02;;;;;;;13.30;10.97;;;32.30;99.90;;;;;;4874404;29;20238;-82
2021/08/13 12:03:30;;;;;;;11.33;10.43;;;32.30;99.90;;;;;;4861679;29;20206;-82
2021/08/13 12:05:57;;;;;;;12.03;10.93;;;32.20;99.90;;;;;;4870804;29;20271;-82
2021/08/13 12:08:24;;;;;;;12.13;10.93;;;32.30;99.90;;;;;;4856304;29;20771;-83
2021/08/13 12:10:53;;;;;;;13.47;11.10;;;32.50;99.90;;;;;;4860216;29;20221;-82
2021/08/13 12:13:32;;;;;;;10.67;9.57;;;32.60;99.90;;;;;;4872840;29;20278;-83
2021/08/13 12:16:02;;;;;;;12.30;11.10;;;32.70;99.90;;;;;;4866098;29;20204;-82
2021/08/13 12:18:32;;;;;;;11.33;10.33;;;32.60;99.90;;;;;;4860618;29;20763;-82
2021/08/13 12:21:05;;;;;;;12.37;11.37;;;32.40;99.90;;;;;;4858603;29;20230;-82
2021/08/13 12:23:33;;;;;;;11.87;10.97;;;32.10;99.90;;;;;;4872221;29;20225;-82
2021/08/13 12:26:02;;;;;;;11.83;10.80;;;32.10;99.90;;;;;;4868212;29;20209;-82
2021/08/13 12:28:31;;;;;;;11.73;10.70;;;31.70;99.90;;;;;;4860377;29;20212;-82
2021/08/13 12:31:07;;;;;;;11.83;10.73;;;31.40;99.90;;;;;;4876339;29;20248;-83
2021/08/13 12:33:36;;;;;;;11.73;10.63;;;31.10;99.90;;;;;;4868160;29;20209;-82
2021/08/13 12:36:14;;;;;;;12.00;11.07;;;31.10;99.90;;;;;;4870779;29;20210;-82
2021/08/13 12:38:45;;;;;;;11.83;10.73;;;31.10;99.90;;;;;;4859804;29;20202;-82
2021/08/13 12:41:17;;;;;;;10.53;9.53;;;31.10;99.90;;;;;;4856959;29;20238;-82
2021/08/13 12:43:44;;;;;;;10.67;9.60;;;31.00;99.90;;;;;;4873918;29;20699;-82
2021/08/13 12:46:11;;;;;;;9.77;8.77;;;31.00;99.90;;;;;;4856884;29;20231;-82
2021/08/13 12:48:40;;;;;;;10.37;9.47;;;31.00;99.90;;;;;;4857307;29;20304;-81
2021/08/13 12:51:07;;;;;;;10.47;9.50;;;31.00;99.90;;;;;;4867563;29;20222;-82